Time;durP1;ratioP1;P1;durP2;ratioP2;P2;SDS_P1;SDS_P2;PMS_P1;PMS_P2;Temp;Humidity;BMP_temperature;BMP_pressure;BME280_temperature;BME280_humidity;BME280_pressure;Samples;Min_cycle;Max_cycle;Signal;HPM_P1;HPM_P2
2021/04/07 00:00:18;;;;;;;8.27;1.00;;;3.00;99.90;;;;;;5054477;28;20025;-68
2021/04/07 00:02:43;;;;;;;12.13;2.20;;;2.90;99.90;;;;;;5060358;28;20041;-68
2021/04/07 00:05:13;;;;;;;10.50;1.23;;;2.80;99.90;;;;;;5044956;28;20033;-68
2021/04/07 00:07:40;;;;;;;10.50;1.58;;;2.50;99.90;;;;;;5039151;28;20182;-70
2021/04/07 00:10:12;;;;;;;5.82;0.90;;;2.20;99.90;;;;;;5049315;28;20033;-68
2021/04/07 00:12:39;;;;;;;7.97;1.15;;;2.00;99.90;;;;;;5044045;28;20091;-67
2021/04/07 00:15:10;;;;;;;7.03;1.33;;;1.90;99.90;;;;;;5035627;28;20450;-67
2021/04/07 00:17:35;;;;;;;2.65;1.10;;;1.90;99.90;;;;;;5035571;28;20415;-67
2021/04/07 00:20:01;;;;;;;7.93;1.80;;;1.80;99.90;;;;;;5046862;28;20021;-68
2021/04/07 00:22:27;;;;;;;1.63;0.85;;;1.80;99.90;;;;;;5047813;28;20489;-68
2021/04/07 00:24:52;;;;;;;6.20;1.23;;;1.80;99.90;;;;;;5041797;28;20017;-69
2021/04/07 00:27:25;;;;;;;5.38;1.48;;;1.90;99.90;;;;;;5043673;28;20025;-68
2021/04/07 00:29:51;;;;;;;3.45;0.80;;;1.90;99.90;;;;;;5036503;28;20030;-69
2021/04/07 00:32:16;;;;;;;4.80;0.90;;;2.00;99.90;;;;;;5047354;28;20055;-70
2021/04/07 00:34:42;;;;;;;5.82;0.82;;;2.00;99.90;;;;;;5042246;28;20033;-68
2021/04/07 00:37:07;;;;;;;4.30;1.00;;;2.10;99.90;;;;;;5044746;28;20021;-68
2021/04/07 00:39:33;;;;;;;4.72;0.77;;;2.10;99.90;;;;;;5036070;28;20033;-69
2021/04/07 00:42:05;;;;;;;9.70;1.00;;;2.10;99.90;;;;;;5035124;28;20029;-68
2021/04/07 00:44:31;;;;;;;7.85;1.75;;;2.10;99.90;;;;;;5035034;28;20018;-68
2021/04/07 00:46:58;;;;;;;6.10;0.90;;;2.10;99.90;;;;;;5035199;28;20034;-69
2021/04/07 00:49:24;;;;;;;7.25;1.50;;;2.10;99.90;;;;;;5033990;28;20394;-69
2021/04/07 00:51:54;;;;;;;7.00;0.70;;;2.20;99.90;;;;;;5033213;28;20029;-69
2021/04/07 00:54:21;;;;;;;13.15;1.80;;;2.10;99.90;;;;;;5034721;28;20026;-68
2021/04/07 00:56:48;;;;;;;8.30;1.30;;;2.20;99.90;;;;;;5034754;28;20018;-69
2021/04/07 00:59:15;;;;;;;3.33;0.68;;;2.20;99.90;;;;;;5035091;28;20021;-68
2021/04/07 01:01:42;;;;;;;5.28;1.08;;;2.30;99.90;;;;;;5034558;28;20021;-68
2021/04/07 01:04:09;;;;;;;6.38;1.02;;;2.30;99.90;;;;;;5034592;28;20091;-69
2021/04/07 01:06:36;;;;;;;2.83;0.80;;;2.30;99.90;;;;;;5032995;28;20037;-68
2021/04/07 01:09:04;;;;;;;3.92;0.90;;;2.30;99.90;;;;;;5034258;28;20025;-69
2021/04/07 01:11:48;;;;;;;12.40;1.67;;;2.40;99.90;;;;;;5033711;28;20045;-69
2021/04/07 01:14:14;;;;;;;4.03;0.95;;;2.40;99.90;;;;;;5035225;28;20028;-68
2021/04/07 01:16:41;;;;;;;20.92;2.95;;;2.50;99.90;;;;;;5033057;28;20025;-67
2021/04/07 01:19:08;;;;;;;8.85;0.90;;;2.40;99.90;;;;;;5034178;28;20029;-68
2021/04/07 01:21:35;;;;;;;4.20;1.10;;;2.40;99.90;;;;;;5032592;28;20033;-67
2021/04/07 01:24:01;;;;;;;7.82;2.42;;;2.40;99.90;;;;;;5034086;28;20045;-67
2021/04/07 01:26:26;;;;;;;8.70;0.95;;;2.40;99.90;;;;;;5032794;28;20433;-67
2021/04/07 01:28:52;;;;;;;6.40;0.88;;;2.40;99.90;;;;;;5033784;28;20075;-69
2021/04/07 01:31:18;;;;;;;8.65;0.90;;;2.40;99.90;;;;;;5033719;28;20037;-70
2021/04/07 01:33:43;;;;;;;14.13;2.85;;;2.40;99.90;;;;;;5033857;28;20056;-69
2021/04/07 01:36:09;;;;;;;5.03;1.17;;;2.30;99.90;;;;;;5032781;28;20116;-68
2021/04/07 01:38:35;;;;;;;10.68;2.63;;;2.30;99.90;;;;;;5033588;28;20029;-69
2021/04/07 01:41:01;;;;;;;8.18;1.20;;;2.30;99.90;;;;;;5034034;28;20021;-69
2021/04/07 01:43:27;;;;;;;2.17;0.85;;;2.30;99.90;;;;;;5033536;28;20470;-69
2021/04/07 01:45:56;;;;;;;7.45;1.05;;;2.30;99.90;;;;;;5034020;28;20029;-68
2021/04/07 01:48:23;;;;;;;8.90;2.35;;;2.20;99.90;;;;;;5032682;28;20025;-69
2021/04/07 01:50:50;;;;;;;13.30;2.70;;;2.10;99.90;;;;;;5032732;28;20025;-68
2021/04/07 01:53:20;;;;;;;11.95;2.47;;;2.10;99.90;;;;;;5032367;28;20029;-69
2021/04/07 01:55:45;;;;;;;4.55;1.38;;;2.10;99.90;;;;;;5032058;28;20032;-69
2021/04/07 01:58:12;;;;;;;11.43;1.40;;;2.10;99.90;;;;;;5032469;28;20116;-69
2021/04/07 02:00:39;;;;;;;6.93;1.00;;;2.10;99.90;;;;;;5032196;28;20026;-68
2021/04/07 02:03:06;;;;;;;2.88;0.65;;;2.20;99.90;;;;;;5032337;28;20425;-68
2021/04/07 02:05:32;;;;;;;14.55;1.20;;;2.20;99.90;;;;;;5033465;28;20080;-69
2021/04/07 02:07:59;;;;;;;5.65;2.17;;;2.30;99.90;;;;;;5033718;28;20025;-68
2021/04/07 02:10:25;;;;;;;3.85;1.60;;;2.20;99.90;;;;;;5047298;28;20390;-70
2021/04/07 02:12:55;;;;;;;10.45;1.02;;;2.10;99.90;;;;;;5030137;28;20497;-69
2021/04/07 02:15:23;;;;;;;2.97;0.75;;;2.10;99.90;;;;;;5032889;28;20026;-69
2021/04/07 02:17:49;;;;;;;8.35;1.13;;;2.00;99.90;;;;;;5031562;28;20018;-71
2021/04/07 02:20:16;;;;;;;8.43;1.38;;;1.90;99.90;;;;;;5031404;28;20028;-70
2021/04/07 02:22:41;;;;;;;6.03;0.85;;;1.90;99.90;;;;;;5033008;28;20033;-70
2021/04/07 02:25:08;;;;;;;6.72;0.93;;;2.00;99.90;;;;;;5032672;28;20421;-72
2021/04/07 02:27:35;;;;;;;5.20;0.85;;;2.00;99.90;;;;;;5034342;28;20029;-68
2021/04/07 02:30:03;;;;;;;8.13;1.20;;;2.10;99.90;;;;;;5033050;28;20036;-69
2021/04/07 02:32:29;;;;;;;10.02;0.75;;;2.10;99.90;;;;;;5030926;28;20037;-69
2021/04/07 02:34:55;;;;;;;4.75;1.48;;;2.20;99.90;;;;;;5031306;28;20108;-70
2021/04/07 02:37:20;;;;;;;7.50;1.40;;;2.20;99.90;;;;;;5032742;28;20029;-69
2021/04/07 02:39:47;;;;;;;10.43;0.90;;;2.20;99.90;;;;;;5030904;28;20370;-70
2021/04/07 02:42:14;;;;;;;3.33;0.88;;;2.20;99.90;;;;;;5032095;28;20075;-69
2021/04/07 02:44:40;;;;;;;9.55;1.13;;;2.20;99.90;;;;;;5031274;28;20060;-69
2021/04/07 02:47:07;;;;;;;7.03;1.10;;;2.20;99.90;;;;;;5032067;28;20029;-69
2021/04/07 02:49:33;;;;;;;13.00;1.77;;;2.20;99.90;;;;;;5030317;28;20116;-69
2021/04/07 02:51:59;;;;;;;11.32;2.65;;;2.20;99.90;;;;;;5030162;28;20108;-69
2021/04/07 02:54:25;;;;;;;17.17;1.73;;;2.20;99.90;;;;;;5029979;28;20501;-70
2021/04/07 02:56:50;;;;;;;11.73;0.70;;;2.10;99.90;;;;;;5031708;28;20501;-69
2021/04/07 02:59:16;;;;;;;9.43;2.08;;;2.20;99.90;;;;;;5031066;28;20338;-70
2021/04/07 03:01:42;;;;;;;9.52;1.45;;;2.20;99.90;;;;;;5032286;28;20025;-68
2021/04/07 03:04:08;;;;;;;9.60;1.20;;;2.20;99.90;;;;;;5030486;28;20509;-71
2021/04/07 03:06:34;;;;;;;11.23;1.60;;;2.30;99.90;;;;;;5030776;28;20072;-69
2021/04/07 03:08:59;;;;;;;8.35;1.67;;;2.30;99.90;;;;;;5031757;28;20105;-69
2021/04/07 03:11:29;;;;;;;14.10;1.65;;;2.30;99.90;;;;;;5030777;28;20120;-70
2021/04/07 03:13:55;;;;;;;14.00;1.90;;;2.30;99.90;;;;;;5032048;28;20025;-70
2021/04/07 03:16:20;;;;;;;17.85;2.70;;;2.40;99.90;;;;;;5031554;28;20547;-69
2021/04/07 03:18:46;;;;;;;9.05;1.70;;;2.30;99.90;;;;;;5030057;28;20486;-70
2021/04/07 03:21:12;;;;;;;12.90;2.40;;;2.20;99.90;;;;;;5030641;28;20500;-70
2021/04/07 03:23:38;;;;;;;11.73;1.58;;;2.10;99.90;;;;;;5030991;28;20072;-69
2021/04/07 03:26:03;;;;;;;11.93;2.35;;;2.10;99.90;;;;;;5033238;28;20036;-69
2021/04/07 03:28:29;;;;;;;11.93;2.03;;;2.00;99.90;;;;;;5031834;28;20032;-70
2021/04/07 03:30:55;;;;;;;13.52;2.47;;;2.00;99.90;;;;;;5029976;28;20460;-70
2021/04/07 03:33:31;;;;;;;7.70;1.17;;;2.00;99.90;;;;;;5030373;28;20121;-69
2021/04/07 03:35:58;;;;;;;9.82;1.42;;;2.00;99.90;;;;;;5030508;28;20048;-69
2021/04/07 03:38:24;;;;;;;15.13;1.98;;;1.90;99.90;;;;;;5031515;28;20025;-69
2021/04/07 03:40:50;;;;;;;9.55;1.67;;;2.00;99.90;;;;;;5032274;28;20030;-69
2021/04/07 03:43:18;;;;;;;7.93;1.58;;;2.00;99.90;;;;;;5030335;28;20030;-70
2021/04/07 03:45:45;;;;;;;8.38;1.00;;;2.00;99.90;;;;;;5033536;28;20033;-69
2021/04/07 03:48:13;;;;;;;7.93;0.77;;;2.00;99.90;;;;;;5033084;28;20501;-70
2021/04/07 03:50:39;;;;;;;6.70;1.67;;;2.00;99.90;;;;;;5033273;28;20044;-68
2021/04/07 03:53:05;;;;;;;14.55;1.58;;;1.80;99.90;;;;;;5034082;28;20061;-69
2021/04/07 03:55:31;;;;;;;8.98;2.45;;;1.80;99.90;;;;;;5035505;28;20021;-70
2021/04/07 03:57:57;;;;;;;7.78;1.77;;;1.90;99.90;;;;;;5034867;28;20096;-68
2021/04/07 04:00:22;;;;;;;7.95;1.20;;;1.80;99.90;;;;;;5034292;28;20087;-69
2021/04/07 04:02:48;;;;;;;9.02;2.17;;;1.80;99.90;;;;;;5035070;28;20477;-69
2021/04/07 04:05:14;;;;;;;9.18;1.67;;;1.70;99.90;;;;;;5035400;28;20025;-71
2021/04/07 04:07:39;;;;;;;13.13;1.88;;;1.80;99.90;;;;;;5035202;28;20025;-69
2021/04/07 04:10:06;;;;;;;10.30;1.13;;;1.80;99.90;;;;;;5033040;28;20037;-69
2021/04/07 04:12:31;;;;;;;9.88;1.13;;;1.90;99.90;;;;;;5033183;28;20090;-69
2021/04/07 04:14:57;;;;;;;5.78;0.98;;;1.90;99.90;;;;;;5033729;28;20521;-70
2021/04/07 04:17:22;;;;;;;3.45;0.82;;;1.80;99.90;;;;;;5033806;28;20032;-69
2021/04/07 04:19:51;;;;;;;14.35;1.70;;;1.80;99.90;;;;;;5033795;28;20043;-68
2021/04/07 04:22:17;;;;;;;4.03;1.15;;;1.70;99.90;;;;;;5035058;28;20425;-68
2021/04/07 04:24:43;;;;;;;10.32;2.15;;;1.70;99.90;;;;;;5033137;28;20503;-69
2021/04/07 04:27:09;;;;;;;4.40;0.73;;;1.70;99.90;;;;;;5034530;28;20021;-68
2021/04/07 04:29:36;;;;;;;4.22;1.13;;;1.80;99.90;;;;;;5028388;28;20033;-68
2021/04/07 04:32:02;;;;;;;2.03;1.38;;;1.80;99.90;;;;;;5033893;28;20028;-69
2021/04/07 04:34:28;;;;;;;5.90;0.77;;;1.70;99.90;;;;;;5032723;28;20163;-67
2021/04/07 04:36:53;;;;;;;6.43;1.13;;;1.60;99.90;;;;;;5032863;28;20034;-69
2021/04/07 04:39:19;;;;;;;8.93;1.55;;;1.60;99.90;;;;;;5034418;28;20018;-68
2021/04/07 04:41:44;;;;;;;3.95;1.08;;;1.60;99.90;;;;;;5033710;28;20042;-68
2021/04/07 04:44:10;;;;;;;1.60;1.10;;;1.50;99.90;;;;;;5033634;28;20041;-68
2021/04/07 04:46:36;;;;;;;7.70;1.00;;;1.50;99.90;;;;;;5033259;28;20025;-68
2021/04/07 04:49:02;;;;;;;5.32;0.88;;;1.50;99.90;;;;;;5033045;28;20075;-69
2021/04/07 04:51:27;;;;;;;5.57;1.27;;;1.50;99.90;;;;;;5033623;28;20033;-68
2021/04/07 04:53:53;;;;;;;6.10;1.58;;;1.50;99.90;;;;;;5033919;28;20505;-69
2021/04/07 04:56:18;;;;;;;9.23;1.38;;;1.50;99.90;;;;;;5031798;28;20024;-68
2021/04/07 04:58:44;;;;;;;6.43;1.40;;;1.50;99.90;;;;;;5032469;28;20116;-68
2021/04/07 05:01:10;;;;;;;6.75;1.38;;;1.50;99.90;;;;;;5033781;28;20017;-69
2021/04/07 05:03:36;;;;;;;13.82;1.90;;;1.50;99.90;;;;;;5033890;28;20076;-69
2021/04/07 05:06:02;;;;;;;13.25;2.95;;;1.60;99.90;;;;;;5033406;28;20504;-68
2021/04/07 05:08:27;;;;;;;10.20;2.00;;;1.60;99.90;;;;;;5033753;28;20018;-68
2021/04/07 05:10:53;;;;;;;9.50;1.83;;;1.60;99.90;;;;;;5033276;28;20148;-69
2021/04/07 05:13:19;;;;;;;9.98;2.63;;;1.70;99.90;;;;;;5033664;28;20099;-68
2021/04/07 05:15:44;;;;;;;9.85;2.45;;;1.70;99.90;;;;;;5033405;28;20029;-68
2021/04/07 05:18:12;;;;;;;13.13;3.53;;;1.80;99.90;;;;;;5033431;28;20017;-69
2021/04/07 05:20:38;;;;;;;27.75;5.15;;;1.90;99.90;;;;;;5034093;28;20026;-69
2021/04/07 05:23:04;;;;;;;11.60;2.42;;;1.90;99.90;;;;;;5033830;28;20474;-68
2021/04/07 05:25:30;;;;;;;10.93;2.63;;;2.00;99.90;;;;;;5032032;28;20028;-69
2021/04/07 05:27:55;;;;;;;21.15;2.55;;;2.00;99.90;;;;;;5034146;28;20018;-69
2021/04/07 05:30:22;;;;;;;17.67;1.88;;;2.10;99.90;;;;;;5034031;28;20048;-70
2021/04/07 05:32:47;;;;;;;13.95;2.08;;;2.20;99.90;;;;;;5033796;28;20478;-70
2021/04/07 05:35:13;;;;;;;16.20;2.38;;;2.40;99.90;;;;;;5033560;28;20029;-71
2021/04/07 05:37:39;;;;;;;16.45;2.17;;;2.50;99.90;;;;;;5031789;28;20112;-69
2021/04/07 05:40:06;;;;;;;16.67;2.67;;;2.70;99.90;;;;;;5033207;28;20114;-70
2021/04/07 05:42:31;;;;;;;37.30;3.42;;;2.90;99.90;;;;;;5033399;28;20056;-71
2021/04/07 05:44:57;;;;;;;23.02;2.88;;;3.00;99.90;;;;;;5034461;28;20120;-69
2021/04/07 05:47:22;;;;;;;22.92;3.22;;;3.20;99.90;;;;;;5036092;28;20477;-71
2021/04/07 05:49:48;;;;;;;19.55;2.40;;;3.20;99.90;;;;;;5041195;28;20033;-70
2021/04/07 05:52:14;;;;;;;27.92;3.47;;;3.40;99.90;;;;;;5045248;28;20036;-69
2021/04/07 05:54:39;;;;;;;27.38;3.05;;;3.50;99.90;;;;;;5042492;28;20485;-69
2021/04/07 05:57:05;;;;;;;29.52;2.55;;;3.50;99.90;;;;;;5035721;28;20066;-70
2021/04/07 05:59:31;;;;;;;27.45;3.53;;;3.60;99.90;;;;;;5034997;28;20032;-70
2021/04/07 06:01:57;;;;;;;21.50;3.65;;;3.60;99.90;;;;;;5033942;28;20026;-70
2021/04/07 06:04:22;;;;;;;7.13;1.88;;;3.70;99.90;;;;;;5031561;28;20036;-70
2021/04/07 06:06:48;;;;;;;15.38;3.25;;;3.80;99.90;;;;;;5031434;28;20073;-69
2021/04/07 06:09:13;;;;;;;21.00;2.95;;;3.90;99.90;;;;;;5032353;28;20457;-69
2021/04/07 06:11:39;;;;;;;20.50;2.78;;;3.90;99.90;;;;;;5037354;28;20379;-70
2021/04/07 06:14:05;;;;;;;23.27;1.83;;;3.90;99.90;;;;;;5031707;28;20494;-70
2021/04/07 06:16:31;;;;;;;13.27;2.38;;;4.00;99.90;;;;;;5032977;28;20381;-71
2021/04/07 06:18:56;;;;;;;9.02;2.53;;;4.00;99.90;;;;;;5032046;28;20017;-71
2021/04/07 06:21:22;;;;;;;17.45;1.98;;;4.10;99.90;;;;;;5031812;28;20124;-70
2021/04/07 06:23:47;;;;;;;16.15;2.13;;;4.20;99.90;;;;;;5031337;28;20071;-71
2021/04/07 06:26:13;;;;;;;11.20;2.20;;;4.20;99.90;;;;;;5032556;28;20516;-71
2021/04/07 06:28:38;;;;;;;18.08;1.88;;;4.20;99.90;;;;;;5047790;28;20115;-70
2021/04/07 06:31:04;;;;;;;15.95;2.50;;;4.10;99.90;;;;;;5031757;28;20033;-70
2021/04/07 06:33:32;;;;;;;14.48;2.63;;;4.20;99.90;;;;;;5031289;28;20017;-70
2021/04/07 06:35:59;;;;;;;;;;;4.10;99.90;;;;;;5032321;28;20021;-70
2021/04/07 06:38:26;;;;;;;13.10;2.03;;;4.10;99.90;;;;;;5032336;28;19940;-70
2021/04/07 06:40:53;;;;;;;16.40;2.03;;;4.10;99.90;;;;;;5031179;28;20030;-72
2021/04/07 06:43:22;;;;;;;24.83;4.25;;;4.20;99.90;;;;;;5031908;28;20441;-71
2021/04/07 06:45:48;;;;;;;35.97;4.00;;;4.30;99.90;;;;;;5031966;28;20025;-71
2021/04/07 06:48:14;;;;;;;18.55;3.15;;;4.20;99.90;;;;;;5042875;28;20033;-70
2021/04/07 06:50:41;;;;;;;14.85;2.40;;;4.20;99.90;;;;;;5045466;28;20024;-70
2021/04/07 06:53:09;;;;;;;29.73;3.00;;;4.20;99.90;;;;;;5045235;28;20042;-72
2021/04/07 06:55:36;;;;;;;19.17;2.38;;;4.10;99.90;;;;;;5040726;28;20041;-72
2021/04/07 06:58:04;;;;;;;14.50;2.22;;;4.00;99.90;;;;;;5041812;28;20087;-70
2021/04/07 07:00:30;;;;;;;16.30;1.95;;;4.00;99.90;;;;;;5048337;28;20025;-71
2021/04/07 07:03:21;;;;;;;15.70;2.13;;;4.00;99.90;;;;;;5050176;28;20045;-70
2021/04/07 07:05:54;;;;;;;11.60;1.50;;;4.00;99.90;;;;;;5039104;28;20080;-71
2021/04/07 07:08:20;;;;;;;10.27;1.42;;;4.00;99.90;;;;;;5044530;28;20112;-71
2021/04/07 07:10:51;;;;;;;19.92;2.72;;;4.00;99.90;;;;;;5047249;28;20078;-70
2021/04/07 07:13:25;;;;;;;14.90;1.90;;;4.10;99.90;;;;;;5033475;28;20044;-70
2021/04/07 07:15:51;;;;;;;23.65;4.38;;;4.20;99.90;;;;;;5036297;28;20022;-70
2021/04/07 07:18:22;;;;;;;12.90;2.72;;;4.20;99.90;;;;;;5046738;28;20082;-70
2021/04/07 07:20:47;;;;;;;20.92;2.67;;;4.20;99.90;;;;;;5050181;28;20084;-70
2021/04/07 07:23:32;;;;;;;16.85;2.85;;;4.30;99.90;;;;;;5034711;28;20037;-70
2021/04/07 07:26:02;;;;;;;13.70;2.63;;;4.40;99.90;;;;;;5049252;28;20069;-70
2021/04/07 07:28:59;;;;;;;22.80;3.45;;;4.50;99.90;;;;;;5034425;28;20075;-69
2021/04/07 07:31:31;;;;;;;19.10;3.20;;;4.60;99.90;;;;;;5033741;28;20041;-71
2021/04/07 07:33:59;;;;;;;26.98;3.00;;;4.60;99.90;;;;;;5037167;28;20033;-72
2021/04/07 07:36:27;;;;;;;34.28;4.80;;;4.70;99.90;;;;;;5032335;28;20034;-71
2021/04/07 07:38:54;;;;;;;35.97;3.87;;;4.80;99.90;;;;;;5036641;28;20029;-70
2021/04/07 07:41:29;;;;;;;35.88;3.72;;;4.90;99.90;;;;;;5036286;28;20056;-73
2021/04/07 07:43:55;;;;;;;22.77;5.13;;;5.00;99.90;;;;;;5031961;28;20017;-71
2021/04/07 07:46:24;;;;;;;23.15;4.50;;;5.10;99.90;;;;;;5045356;28;20014;-72
2021/04/07 07:48:50;;;;;;;29.80;4.13;;;5.20;99.90;;;;;;5054474;28;20017;-70
2021/04/07 07:51:24;;;;;;;27.30;4.82;;;5.40;99.90;;;;;;5046196;28;20024;-71
2021/04/07 07:53:51;;;;;;;35.40;4.47;;;5.60;99.90;;;;;;5042168;28;20032;-71
2021/04/07 07:56:19;;;;;;;33.28;5.95;;;5.60;99.90;;;;;;5038390;28;20478;-71
2021/04/07 07:58:47;;;;;;;24.17;5.07;;;5.70;99.90;;;;;;5034891;28;20068;-71
2021/04/07 08:01:15;;;;;;;39.50;4.13;;;5.70;99.90;;;;;;5035161;28;20382;-70
2021/04/07 08:03:45;;;;;;;48.40;5.05;;;5.60;99.90;;;;;;5036624;28;20029;-71
2021/04/07 08:06:12;;;;;;;31.42;4.43;;;5.50;99.90;;;;;;5044282;28;20033;-71
2021/04/07 08:08:38;;;;;;;34.13;4.00;;;5.40;99.90;;;;;;5039787;28;20027;-70
2021/04/07 08:11:07;;;;;;;35.30;5.75;;;5.40;99.90;;;;;;5036833;28;20030;-72
2021/04/07 08:13:37;;;;;;;36.25;4.18;;;5.40;99.90;;;;;;5037950;28;20044;-70
2021/04/07 08:16:03;;;;;;;30.55;4.78;;;5.60;99.90;;;;;;5038391;28;20025;-71
2021/04/07 08:18:30;;;;;;;35.88;3.30;;;5.80;99.90;;;;;;5035236;28;20018;-72
2021/04/07 08:20:56;;;;;;;33.97;3.60;;;5.90;99.90;;;;;;5035990;28;20018;-69
2021/04/07 08:23:26;;;;;;;19.15;3.90;;;6.00;99.90;;;;;;5052866;28;20025;-68
2021/04/07 08:25:54;;;;;;;19.73;3.15;;;6.00;99.90;;;;;;5041481;28;20020;-70
2021/04/07 08:28:21;;;;;;;28.40;3.28;;;6.00;99.90;;;;;;5045951;28;20025;-71
2021/04/07 08:30:48;;;;;;;32.40;3.30;;;6.10;99.90;;;;;;5044343;28;20081;-71
2021/04/07 08:33:18;;;;;;;37.63;5.45;;;6.30;99.90;;;;;;5043670;28;20033;-70
2021/04/07 08:35:45;;;;;;;32.38;3.35;;;6.20;99.90;;;;;;5033946;28;20014;-70
2021/04/07 08:38:10;;;;;;;37.25;3.75;;;6.20;99.90;;;;;;5046640;28;20021;-69
2021/04/07 08:40:44;;;;;;;25.90;3.33;;;6.30;99.90;;;;;;5047659;28;20032;-69
2021/04/07 08:43:12;;;;;;;32.78;4.05;;;6.40;99.90;;;;;;5043228;28;20044;-70
2021/04/07 08:45:45;;;;;;;26.05;3.78;;;6.40;99.90;;;;;;5044914;28;20044;-70
2021/04/07 08:48:19;;;;;;;38.85;5.15;;;6.40;99.90;;;;;;5048662;28;20150;-71
2021/04/07 08:50:50;;;;;;;35.72;5.10;;;6.40;99.90;;;;;;5043280;28;20029;-69
2021/04/07 08:53:17;;;;;;;29.50;4.25;;;6.40;99.90;;;;;;5043855;28;20187;-71
2021/04/07 08:55:56;;;;;;;28.03;3.63;;;6.40;99.90;;;;;;5042089;28;20052;-70
2021/04/07 08:58:23;;;;;;;;;;;6.30;99.90;;;;;;5042420;28;20021;-70
2021/04/07 09:00:52;;;;;;;27.75;3.65;;;6.20;99.90;;;;;;5042218;28;19954;-71
2021/04/07 09:03:25;;;;;;;34.75;4.97;;;6.20;99.90;;;;;;5046578;28;20024;-69
2021/04/07 09:05:51;;;;;;;20.33;4.30;;;6.20;99.90;;;;;;5038944;28;20025;-72
2021/04/07 09:08:27;;;;;;;35.13;4.07;;;6.20;99.90;;;;;;5040063;28;20436;-70
2021/04/07 09:10:57;;;;;;;31.70;5.55;;;6.40;99.90;;;;;;5041273;28;20029;-70
2021/04/07 09:13:32;;;;;;;37.10;4.20;;;6.40;99.90;;;;;;5048640;28;20056;-70
2021/04/07 09:16:06;;;;;;;35.63;4.03;;;6.60;99.90;;;;;;5043878;28;20485;-70
2021/04/07 09:18:41;;;;;;;29.80;3.45;;;6.70;99.90;;;;;;5041423;28;20021;-71
2021/04/07 09:21:17;;;;;;;28.85;5.05;;;6.80;99.90;;;;;;5038635;28;20021;-70
2021/04/07 09:23:51;;;;;;;17.17;4.55;;;6.90;99.90;;;;;;5044748;28;20469;-70
2021/04/07 09:26:19;;;;;;;32.67;4.22;;;7.10;99.90;;;;;;5036372;28;20378;-71
2021/04/07 09:28:51;;;;;;;32.80;3.75;;;7.10;99.90;;;;;;5044276;28;20470;-73
2021/04/07 09:31:18;;;;;;;35.00;6.32;;;7.20;99.90;;;;;;5052396;28;20025;-71
2021/04/07 09:33:52;;;;;;;24.77;3.00;;;7.00;99.90;;;;;;5047886;28;20484;-71
2021/04/07 09:36:28;;;;;;;31.38;3.97;;;6.80;99.90;;;;;;5050165;28;20095;-72
2021/04/07 09:38:55;;;;;;;24.23;3.10;;;6.20;99.90;;;;;;5044157;28;20029;-72
2021/04/07 09:41:28;;;;;;;28.98;3.65;;;5.80;99.90;;;;;;5037253;28;20038;-70
2021/04/07 09:43:58;;;;;;;31.70;3.88;;;5.60;99.90;;;;;;5033555;28;20021;-72
2021/04/07 09:46:25;;;;;;;26.85;3.17;;;5.50;99.90;;;;;;5033351;28;20029;-71
2021/04/07 09:48:53;;;;;;;31.38;3.80;;;5.60;99.90;;;;;;5037223;28;20036;-72
2021/04/07 09:51:24;;;;;;;;;;;5.70;99.90;;;;;;5033819;28;20470;-71
2021/04/07 09:53:51;;;;;;;31.75;2.95;;;5.70;99.90;;;;;;5032026;28;19939;-70
2021/04/07 09:56:17;;;;;;;21.63;3.30;;;5.90;99.90;;;;;;5031602;28;20040;-72
2021/04/07 09:58:48;;;;;;;29.33;4.43;;;6.30;99.90;;;;;;5042734;28;20024;-71
2021/04/07 10:01:17;;;;;;;27.25;3.08;;;6.60;99.90;;;;;;5033821;28;20026;-69
2021/04/07 10:03:50;;;;;;;20.88;2.75;;;6.80;99.90;;;;;;5044202;28;20390;-72
2021/04/07 10:06:24;;;;;;;18.77;2.60;;;6.80;99.90;;;;;;5044505;28;20354;-71
2021/04/07 10:09:06;;;;;;;17.55;2.67;;;6.80;99.90;;;;;;5042893;28;20032;-72
2021/04/07 10:11:39;;;;;;;20.77;3.15;;;6.90;99.90;;;;;;5040504;28;20390;-72
2021/04/07 10:14:05;;;;;;;13.68;2.17;;;6.80;99.90;;;;;;5041093;28;20040;-71
2021/04/07 10:16:36;;;;;;;21.27;3.83;;;6.50;99.90;;;;;;5042476;28;20017;-72
2021/04/07 10:19:09;;;;;;;16.73;3.53;;;6.10;99.90;;;;;;5045181;28;20033;-72
2021/04/07 10:21:36;;;;;;;30.98;3.45;;;5.90;99.90;;;;;;5039297;28;20025;-71
2021/04/07 10:24:04;;;;;;;26.92;4.15;;;5.80;99.90;;;;;;5042345;28;20029;-70
2021/04/07 10:26:30;;;;;;;25.52;3.60;;;5.80;99.90;;;;;;5034266;28;20021;-70
2021/04/07 10:29:01;;;;;;;25.50;5.07;;;5.80;99.90;;;;;;5041582;28;20024;-70
2021/04/07 10:31:28;;;;;;;24.73;3.90;;;5.70;99.90;;;;;;5045366;28;20029;-70
2021/04/07 10:34:05;;;;;;;38.42;4.22;;;5.60;99.90;;;;;;5035739;28;20021;-71
2021/04/07 10:36:31;;;;;;;17.30;2.58;;;5.40;99.90;;;;;;5034499;28;20032;-70
2021/04/07 10:39:10;;;;;;;15.63;2.10;;;5.40;99.90;;;;;;5043597;28;20020;-70
2021/04/07 10:41:35;;;;;;;9.07;1.73;;;5.40;99.90;;;;;;5036913;28;20044;-71
2021/04/07 10:44:01;;;;;;;11.23;2.75;;;5.50;99.90;;;;;;5054786;28;20393;-72
2021/04/07 10:46:31;;;;;;;21.23;3.22;;;5.70;99.90;;;;;;5045638;28;20544;-71
2021/04/07 10:48:58;;;;;;;17.23;3.13;;;5.90;99.90;;;;;;5034694;28;20470;-71
2021/04/07 10:51:29;;;;;;;26.10;2.95;;;6.10;99.90;;;;;;5030850;28;20537;-71
2021/04/07 10:53:57;;;;;;;15.13;2.53;;;6.40;99.90;;;;;;5029908;28;20030;-70
2021/04/07 10:56:26;;;;;;;28.30;4.45;;;6.80;99.90;;;;;;5033270;28;20398;-69
2021/04/07 10:59:03;;;;;;;;;;;6.90;99.90;;;;;;5033321;28;20021;-70
2021/04/07 11:01:33;;;;;;;15.20;1.85;;;6.80;99.90;;;;;;5030017;28;19917;-72
2021/04/07 11:04:13;;;;;;;21.90;2.05;;;6.50;99.90;;;;;;5032334;28;20021;-71
2021/04/07 11:06:38;;;;;;;26.35;2.05;;;6.30;99.90;;;;;;5030001;28;20022;-71
2021/04/07 11:09:05;;;;;;;14.25;2.28;;;6.30;99.90;;;;;;5030311;28;20053;-70
2021/04/07 11:11:31;;;;;;;13.18;2.55;;;6.40;99.90;;;;;;5030581;28;20059;-71
2021/04/07 11:13:57;;;;;;;18.80;2.13;;;6.50;99.90;;;;;;5030040;28;20045;-72
2021/04/07 11:16:33;;;;;;;15.38;2.30;;;6.70;99.90;;;;;;5029823;28;20022;-71
2021/04/07 11:18:59;;;;;;;13.93;1.90;;;6.50;99.90;;;;;;5029937;28;20398;-71
2021/04/07 11:21:25;;;;;;;26.90;2.28;;;6.60;99.90;;;;;;5032700;28;20033;-69
2021/04/07 11:23:50;;;;;;;10.90;2.03;;;6.80;99.90;;;;;;5031458;28;20017;-70
2021/04/07 11:26:16;;;;;;;10.20;1.95;;;7.10;99.90;;;;;;5029848;28;20382;-71
2021/04/07 11:28:42;;;;;;;22.38;3.58;;;7.30;99.90;;;;;;5029157;28;20061;-71
2021/04/07 11:31:15;;;;;;;17.15;2.25;;;7.50;99.90;;;;;;5028974;28;20458;-71
2021/04/07 11:33:51;;;;;;;10.25;1.80;;;7.70;99.90;;;;;;5032333;28;20106;-71
2021/04/07 11:38:49;;;;;;;10.20;1.50;;;7.30;99.90;;;;;;5046173;28;20087;-71
2021/04/07 11:46:25;;;;;;;16.05;1.95;;;7.10;99.90;;;;;;5032337;28;20120;-70
2021/04/07 11:48:51;;;;;;;7.18;1.40;;;7.20;99.90;;;;;;5042423;28;20029;-71
2021/04/07 11:51:18;;;;;;;8.23;2.58;;;7.50;99.90;;;;;;5037162;28;20021;-72
2021/04/07 11:53:47;;;;;;;15.13;1.75;;;7.50;99.90;;;;;;5035822;28;20033;-72
2021/04/07 11:56:15;;;;;;;9.18;1.33;;;7.60;99.90;;;;;;5049596;28;20056;-71
2021/04/07 11:58:40;;;;;;;10.00;3.23;;;7.40;99.90;;;;;;5042891;28;20166;-72
2021/04/07 12:01:06;;;;;;;13.50;1.60;;;7.30;99.90;;;;;;5038645;28;20063;-72
2021/04/07 12:03:32;;;;;;;7.75;1.55;;;7.50;99.90;;;;;;5047622;28;20032;-74
2021/04/07 12:05:58;;;;;;;16.20;1.45;;;7.40;99.90;;;;;;5033914;28;20040;-72
2021/04/07 12:08:23;;;;;;;24.23;2.60;;;7.30;99.90;;;;;;5039399;28;20038;-72
2021/04/07 12:10:49;;;;;;;14.93;1.77;;;7.10;99.90;;;;;;5035632;28;20068;-72
2021/04/07 12:13:15;;;;;;;3.97;1.40;;;7.10;99.90;;;;;;5035967;28;20092;-72
2021/04/07 12:15:41;;;;;;;9.48;2.47;;;7.00;99.90;;;;;;5036737;28;20021;-73
2021/04/07 12:18:07;;;;;;;9.77;1.40;;;7.00;99.90;;;;;;5036007;28;20030;-73
2021/04/07 12:20:34;;;;;;;8.43;1.20;;;6.90;99.90;;;;;;5041994;28;20037;-73
2021/04/07 12:23:01;;;;;;;19.38;1.85;;;6.90;99.90;;;;;;5036892;28;20116;-72
2021/04/07 12:25:28;;;;;;;8.25;1.63;;;7.10;99.90;;;;;;5036648;28;20117;-71
2021/04/07 12:27:54;;;;;;;17.70;2.65;;;7.20;99.90;;;;;;5034645;28;20425;-72
2021/04/07 12:30:21;;;;;;;26.90;2.55;;;7.20;99.90;;;;;;5034509;28;20442;-71
2021/04/07 12:32:47;;;;;;;18.65;2.22;;;6.90;99.90;;;;;;5035667;28;20113;-72
2021/04/07 12:35:14;;;;;;;19.70;1.63;;;6.70;99.90;;;;;;5033998;28;20502;-73
2021/04/07 12:37:42;;;;;;;11.68;1.85;;;6.60;99.90;;;;;;5035416;28;20022;-73
2021/04/07 12:40:08;;;;;;;9.80;1.80;;;6.40;99.90;;;;;;5035206;28;20013;-74
2021/04/07 12:42:34;;;;;;;14.10;1.85;;;6.10;99.90;;;;;;5035553;28;20029;-73
2021/04/07 12:45:00;;;;;;;16.23;1.92;;;6.00;99.90;;;;;;5042417;28;20488;-72
2021/04/07 12:47:25;;;;;;;10.20;2.15;;;5.70;99.90;;;;;;5039079;28;20037;-72
2021/04/07 12:49:51;;;;;;;12.18;2.35;;;5.60;99.90;;;;;;5037356;28;20025;-70
2021/04/07 12:52:16;;;;;;;13.57;2.55;;;5.60;99.90;;;;;;5035908;28;20033;-71
2021/04/07 12:54:42;;;;;;;13.13;2.00;;;5.70;99.90;;;;;;5035474;28;20109;-68
2021/04/07 12:57:08;;;;;;;11.07;2.42;;;5.80;99.90;;;;;;5051701;28;20033;-73
2021/04/07 12:59:34;;;;;;;13.25;1.92;;;6.20;99.90;;;;;;5033750;28;20053;-70